Amor, Minnesota
Current Conditions -  °F | °C
As of 10:34 AM on Tuesday 27 Jan 2015 (Local Time) from KFFM Reporting Station
Haze Haze  
Wind Chill: -8°   Ceiling: 100
Heat Index: -2°   Visibility: 4mi
Dew Point: -2°   Wind: 12mph
Humidity: 100%   Direction: 160°SSE
Pressure: 30.13"   Gusts: NA
Location:  46.3166°N, 95.7183°W
Report Text: KFFM 271634Z AUTO 16010KT 4SM BR OVC001 M02/M02 A3013 RMK AO2
Loading
Personal Weather Stations






























Interactive Weather Map New forecast layout! Learn more

10-Day Weather Forecast

Advertisements
Track Severe Weather on mobile